Kinderhook, IL (62345)

7:05 PM CST on February 09, 2016 (GMT -0600)
HADS | | Change Station
CLOSE
Current Station
Personal Weather Station
Location: Kinderhook, IL
Elevation: 470 ft
Nearby Weather Stations

Elev 470 ft 39.64 °N, 91.25 °W | Updated 35 minutes ago

Clear
Clear
22.0 °F
Feels Like 11 °F
N
10.0
Wind Variable Wind from NW
Gusts 0.0 mph

Today
High -- | Low -- °F
--% Chance of Precip.
Yesterday
High -- | Low -- °F
Precip. -- in
Pressure 30.12 in
Visibility 10.0 miles
Clouds Clear
Windchill 11 °F
Dew Point Not available.
Humidity Not available.
Rainfall in
Snow Depth Not available.
7:04 AM 5:33 PM
Waxing Crescent, 3% visible
METAR KHAE 100055Z AUTO 31011G18KT 10SM CLR M06/M13 A3012 RMK AO2
Pressure 30.12 in
Visibility 10.0 miles
Clouds Clear
Windchill 11 °F
Dew Point Not available.
Humidity Not available.
Rainfall in
Snow Depth Not available.
7:04 AM 5:33 PM
Waxing Crescent, 3% visible
METAR KHAE 100055Z AUTO 31011G18KT 10SM CLR M06/M13 A3012 RMK AO2

10-Day Weather Forecast

Almanac

Astronomy

Feb. 09, 2016 Rise Set
Actual Time
Civil Twilight
Nautical Twilight
Astronomical Twilight
Moon
Length of Visible Light
Length of Day
Tomorrow will be .
, % of the Moon is Illuminated

Today's Extremes

State Highs State Lows

Community

WunderPhotos

Upload Photos

1,891,752 photos uploaded!

WunderBlog® & News

Nearby

Air Quality

  Air Quality AQ Index Pollutant
Not available.

Snow Depth

Station Depth Elevation

Earthquake Activity

City Distance Mag. Time & Date
Minimum magnitude displayed is 2.5.

Coastal Water Temperatures

Place Temperature

Stations

Nearby Weather Stations

Station Location Temp. Windchill Dew Point Humidity Wind Precip. Elev Updated Type
                   

Watches & Warnings

There are currently no watches in effect.